createdAt,value
2023-03-16T00:00:53.517Z,2.10
2023-03-16T00:03:22.979Z,2.10
2023-03-16T00:05:53.855Z,2.10
2023-03-16T00:08:22.088Z,2.10
2023-03-16T00:10:54.244Z,2.10
2023-03-16T00:13:24.865Z,2.10
2023-03-16T00:15:54.483Z,2.10
2023-03-16T00:18:27.282Z,2.10
2023-03-16T00:20:58.159Z,2.10
2023-03-16T00:23:28.215Z,2.10
2023-03-16T00:26:00.049Z,2.10
2023-03-16T00:28:34.664Z,2.10
2023-03-16T00:31:05.604Z,2.10
2023-03-16T00:33:36.796Z,2.10
2023-03-16T00:36:09.356Z,2.00
2023-03-16T00:38:45.385Z,2.00
2023-03-16T00:41:18.101Z,2.00
2023-03-16T00:43:48.869Z,2.00
2023-03-16T00:46:18.534Z,2.00
2023-03-16T00:48:51.462Z,2.00
2023-03-16T00:51:20.095Z,2.00
2023-03-16T00:53:48.470Z,2.00
2023-03-16T00:56:17.486Z,2.00
2023-03-16T00:58:48.144Z,2.00
2023-03-16T01:01:19.333Z,2.00
2023-03-16T01:03:51.101Z,2.00
2023-03-16T01:06:22.244Z,2.00
2023-03-16T01:08:50.450Z,2.00
2023-03-16T01:11:19.815Z,2.10
2023-03-16T01:13:48.725Z,2.10
2023-03-16T01:16:18.884Z,2.10
2023-03-16T01:18:52.548Z,2.10
2023-03-16T01:21:21.698Z,2.10
2023-03-16T01:23:51.199Z,2.10
2023-03-16T01:26:20.454Z,2.10
2023-03-16T01:28:50.574Z,2.10
2023-03-16T01:31:18.885Z,2.10
2023-03-16T01:33:47.098Z,2.20
2023-03-16T01:36:22.311Z,2.10
2023-03-16T01:39:03.234Z,2.10
2023-03-16T01:41:38.313Z,2.10
2023-03-16T01:44:06.965Z,2.10
2023-03-16T01:46:37.468Z,2.10
2023-03-16T01:49:12.282Z,2.10
2023-03-16T01:51:51.564Z,2.10
2023-03-16T01:54:29.157Z,2.10
2023-03-16T01:57:01.924Z,2.10
2023-03-16T01:59:34.322Z,2.00
2023-03-16T02:02:06.081Z,2.10
2023-03-16T02:04:43.306Z,2.10
2023-03-16T02:07:17.178Z,2.10
2023-03-16T02:09:48.091Z,2.00
2023-03-16T02:12:18.859Z,2.00
2023-03-16T02:14:52.659Z,2.00
2023-03-16T02:17:27.945Z,2.10
2023-03-16T02:20:10.986Z,2.10
2023-03-16T02:22:46.417Z,2.10
2023-03-16T02:25:17.375Z,2.00
2023-03-16T02:27:55.678Z,2.00
2023-03-16T02:30:26.197Z,2.00
2023-03-16T02:33:22.475Z,2.00
2023-03-16T02:35:52.110Z,2.00
2023-03-16T02:38:23.058Z,2.00
2023-03-16T02:41:01.013Z,2.00
2023-03-16T02:43:35.884Z,2.00
2023-03-16T02:46:18.937Z,2.00
2023-03-16T02:48:54.373Z,2.00
2023-03-16T02:51:22.542Z,2.00
2023-03-16T02:53:54.700Z,2.00
2023-03-16T02:56:26.235Z,2.00
2023-03-16T02:58:54.804Z,2.00
2023-03-16T03:01:24.761Z,2.00
2023-03-16T03:03:56.078Z,2.00
2023-03-16T03:06:26.820Z,2.00
2023-03-16T03:08:57.601Z,2.00
2023-03-16T03:11:28.063Z,2.00
2023-03-16T03:13:58.746Z,2.00
2023-03-16T03:16:30.298Z,2.00
2023-03-16T03:18:59.019Z,2.00
2023-03-16T03:21:29.890Z,2.00
2023-03-16T03:23:57.969Z,2.00
2023-03-16T03:26:26.100Z,2.10
2023-03-16T03:29:00.002Z,2.10
2023-03-16T03:31:28.166Z,2.10
2023-03-16T03:34:06.401Z,2.10
2023-03-16T03:36:36.638Z,2.10
2023-03-16T03:39:07.778Z,2.10
2023-03-16T03:41:37.130Z,2.10
2023-03-16T03:44:07.184Z,2.10
2023-03-16T03:46:36.618Z,2.10
2023-03-16T03:49:08.693Z,2.10
2023-03-16T03:51:36.946Z,2.10
2023-03-16T03:54:09.486Z,2.10
2023-03-16T03:56:40.234Z,2.20
2023-03-16T03:59:12.783Z,2.20
2023-03-16T04:01:59.283Z,2.20
2023-03-16T04:04:38.579Z,2.20
2023-03-16T04:07:11.516Z,2.20
2023-03-16T04:09:43.459Z,2.20
2023-03-16T04:12:20.560Z,2.20
2023-03-16T04:14:48.922Z,2.20
2023-03-16T04:17:18.417Z,2.20
2023-03-16T04:19:52.086Z,2.20
2023-03-16T04:22:23.207Z,2.20
2023-03-16T04:24:52.770Z,2.30
2023-03-16T04:27:24.851Z,2.20
2023-03-16T04:29:58.636Z,2.30
2023-03-16T04:32:27.612Z,2.30
2023-03-16T04:35:01.950Z,2.30
2023-03-16T04:37:42.856Z,2.30
2023-03-16T04:40:16.952Z,2.30
2023-03-16T04:42:51.306Z,2.30
2023-03-16T04:45:22.154Z,2.30
2023-03-16T04:47:53.165Z,2.30
2023-03-16T04:50:22.959Z,2.40
2023-03-16T04:52:54.241Z,2.40
2023-03-16T04:55:24.663Z,2.40
2023-03-16T04:57:53.744Z,2.40
2023-03-16T05:00:24.204Z,2.40
2023-03-16T05:03:02.766Z,2.40
2023-03-16T05:05:32.371Z,2.40
2023-03-16T05:08:06.001Z,2.40
2023-03-16T05:10:36.110Z,2.40
2023-03-16T05:13:04.498Z,2.40
2023-03-16T05:15:35.674Z,2.40
2023-03-16T05:18:19.735Z,2.50
2023-03-16T05:20:51.067Z,2.50
2023-03-16T05:23:19.352Z,2.50
2023-03-16T05:25:50.984Z,2.50
2023-03-16T05:28:21.877Z,2.50
2023-03-16T05:30:56.429Z,2.50
2023-03-16T05:33:28.010Z,2.50
2023-03-16T05:36:04.265Z,2.60
2023-03-16T05:38:33.294Z,2.60
2023-03-16T05:41:05.955Z,2.60
2023-03-16T05:44:04.437Z,2.60
2023-03-16T05:46:47.016Z,2.60
2023-03-16T05:49:17.641Z,2.60
2023-03-16T05:51:50.224Z,2.60
2023-03-16T05:54:18.649Z,2.60
2023-03-16T05:56:47.859Z,2.70
2023-03-16T05:59:17.943Z,2.70
2023-03-16T06:01:50.614Z,2.70
2023-03-16T06:04:23.770Z,2.70
2023-03-16T06:06:53.613Z,2.70
2023-03-16T06:09:24.939Z,2.70
2023-03-16T06:11:55.527Z,2.70
2023-03-16T06:14:24.932Z,2.80
2023-03-16T06:16:55.618Z,2.80
2023-03-16T06:19:24.346Z,2.80
2023-03-16T06:21:59.490Z,2.90
2023-03-16T06:24:31.596Z,2.90
2023-03-16T06:26:59.832Z,2.90
2023-03-16T06:29:34.418Z,3.00
2023-03-16T06:32:05.443Z,3.00
2023-03-16T06:34:35.075Z,3.00
2023-03-16T06:37:08.170Z,3.10
2023-03-16T06:39:36.645Z,3.10
2023-03-16T06:42:05.559Z,3.20
2023-03-16T06:44:34.531Z,3.20
2023-03-16T06:47:10.414Z,3.30
2023-03-16T06:49:38.689Z,3.30
2023-03-16T06:52:16.367Z,3.30
2023-03-16T06:54:44.578Z,3.40
2023-03-16T06:57:14.055Z,3.40
2023-03-16T06:59:44.768Z,3.40
2023-03-16T07:02:14.965Z,3.50
2023-03-16T07:04:43.438Z,3.50
2023-03-16T07:07:12.404Z,3.50
2023-03-16T07:09:42.077Z,3.50
2023-03-16T07:12:10.795Z,3.60
2023-03-16T07:14:39.296Z,3.60
2023-03-16T07:17:11.589Z,3.70
2023-03-16T07:19:39.901Z,3.70
2023-03-16T07:22:08.126Z,3.70
2023-03-16T07:24:39.505Z,3.80
2023-03-16T07:27:11.392Z,3.80
2023-03-16T07:29:40.411Z,3.90
2023-03-16T07:32:08.845Z,4.00
2023-03-16T07:34:39.579Z,4.10
2023-03-16T07:37:10.914Z,4.10
2023-03-16T07:39:41.978Z,4.20
2023-03-16T07:42:17.437Z,4.20
2023-03-16T07:45:09.910Z,4.30
2023-03-16T07:47:38.186Z,4.40
2023-03-16T07:50:35.571Z,4.40
2023-03-16T07:53:05.195Z,4.40
2023-03-16T07:55:36.610Z,4.50
2023-03-16T07:58:07.356Z,4.60
2023-03-16T08:00:39.207Z,4.60
2023-03-16T08:03:10.868Z,4.60
2023-03-16T08:05:39.590Z,4.60
2023-03-16T08:08:13.096Z,4.70
2023-03-16T08:10:43.844Z,4.70
2023-03-16T08:13:17.114Z,4.70
2023-03-16T08:15:48.302Z,4.80
2023-03-16T08:18:26.899Z,4.90
2023-03-16T08:20:55.718Z,4.90
2023-03-16T08:23:24.204Z,4.90
2023-03-16T08:25:53.906Z,5.00
2023-03-16T08:28:25.944Z,5.10
2023-03-16T08:30:58.474Z,5.10
2023-03-16T08:33:52.873Z,5.20
2023-03-16T08:36:24.621Z,5.20
2023-03-16T08:39:06.607Z,5.30
2023-03-16T08:41:41.345Z,5.30
2023-03-16T08:44:20.142Z,5.40
2023-03-16T08:46:48.457Z,5.50
2023-03-16T08:49:20.788Z,5.50
2023-03-16T08:51:54.184Z,5.60
2023-03-16T08:54:22.946Z,5.70
2023-03-16T08:56:54.904Z,5.90
2023-03-16T08:59:30.228Z,5.90
2023-03-16T09:02:00.610Z,6.00
2023-03-16T09:04:29.993Z,6.10
2023-03-16T09:07:08.305Z,6.10
2023-03-16T09:09:37.600Z,6.30
2023-03-16T09:12:07.115Z,6.30
2023-03-16T09:14:38.442Z,6.40
2023-03-16T09:17:07.658Z,6.40
2023-03-16T09:19:50.710Z,6.50
2023-03-16T09:22:20.515Z,6.50
2023-03-16T09:24:51.295Z,6.50
2023-03-16T09:27:20.676Z,6.60
2023-03-16T09:29:50.914Z,6.60
2023-03-16T09:32:19.667Z,6.70
2023-03-16T09:34:50.624Z,6.70
2023-03-16T09:37:21.614Z,6.80
2023-03-16T09:39:50.613Z,6.90
2023-03-16T09:42:25.997Z,6.90
2023-03-16T09:45:10.208Z,7.00
2023-03-16T09:47:39.836Z,7.00
2023-03-16T09:50:12.721Z,7.00
2023-03-16T09:52:49.073Z,7.00
2023-03-16T09:55:29.012Z,7.00
2023-03-16T09:58:00.550Z,7.10
2023-03-16T10:00:35.135Z,7.10
2023-03-16T10:03:24.838Z,7.10
2023-03-16T10:06:00.890Z,7.10
2023-03-16T10:08:37.397Z,7.20
2023-03-16T10:11:25.914Z,7.20
2023-03-16T10:14:02.681Z,7.20
2023-03-16T10:16:39.283Z,7.20
2023-03-16T10:19:14.569Z,7.20
2023-03-16T10:21:43.688Z,7.20
2023-03-16T10:24:27.682Z,7.30
2023-03-16T10:27:00.563Z,7.30
2023-03-16T10:29:36.420Z,7.30
2023-03-16T10:32:14.589Z,7.20
2023-03-16T10:34:50.442Z,7.20
2023-03-16T10:37:19.090Z,7.20
2023-03-16T10:39:49.567Z,7.20
2023-03-16T10:42:22.393Z,7.20
2023-03-16T10:44:50.653Z,7.20
2023-03-16T10:47:25.092Z,7.20
2023-03-16T10:49:55.916Z,7.10
2023-03-16T10:52:31.726Z,7.10
2023-03-16T10:55:02.298Z,7.10
2023-03-16T10:57:34.319Z,7.10
2023-03-16T11:00:20.538Z,7.10
2023-03-16T11:02:51.100Z,7.20
2023-03-16T11:05:29.521Z,7.20
2023-03-16T11:08:03.721Z,7.30
2023-03-16T11:10:40.456Z,7.40
2023-03-16T11:13:18.185Z,7.40
2023-03-16T11:15:51.654Z,7.40
2023-03-16T11:18:33.657Z,7.40
2023-03-16T11:21:06.494Z,7.50
2023-03-16T11:23:42.187Z,7.50
2023-03-16T11:26:22.244Z,7.60
2023-03-16T11:29:01.767Z,7.60
2023-03-16T11:31:43.079Z,7.70
2023-03-16T11:34:17.858Z,7.70
2023-03-16T11:36:51.261Z,7.80
2023-03-16T11:39:31.731Z,7.90
2023-03-16T11:42:17.179Z,7.90
2023-03-16T11:44:57.733Z,8.00
2023-03-16T11:48:04.875Z,8.00
2023-03-16T11:50:48.148Z,8.10
2023-03-16T11:53:31.251Z,8.10
2023-03-16T11:56:12.816Z,8.10
2023-03-16T11:58:58.202Z,8.10
2023-03-16T12:01:43.018Z,8.20
2023-03-16T12:04:28.381Z,8.20
2023-03-16T12:07:20.456Z,8.20
2023-03-16T12:10:07.328Z,8.20
2023-03-16T12:12:48.862Z,8.30
2023-03-16T12:15:31.320Z,8.30
2023-03-16T12:18:06.213Z,8.30
2023-03-16T12:20:44.997Z,8.30
2023-03-16T12:23:22.624Z,8.30
2023-03-16T12:25:54.501Z,8.40
2023-03-16T12:28:26.596Z,8.40
2023-03-16T12:31:06.136Z,8.50
2023-03-16T12:33:47.756Z,8.50
2023-03-16T12:36:49.879Z,8.60
2023-03-16T12:39:41.104Z,8.60
2023-03-16T12:42:25.067Z,8.70
2023-03-16T12:44:57.770Z,8.80
2023-03-16T12:47:34.012Z,9.00
2023-03-16T12:50:09.181Z,9.00
2023-03-16T12:52:45.438Z,9.00
2023-03-16T12:55:18.093Z,9.00
2023-03-16T12:57:49.184Z,9.00
2023-03-16T13:00:18.295Z,9.00
2023-03-16T13:02:52.616Z,9.10
2023-03-16T13:05:32.245Z,9.20
2023-03-16T13:08:08.976Z,9.30
2023-03-16T13:10:39.342Z,9.40
2023-03-16T13:13:14.990Z,9.40
2023-03-16T13:15:47.290Z,9.40
2023-03-16T13:18:24.159Z,9.30
2023-03-16T13:20:57.768Z,9.30
2023-03-16T13:23:28.853Z,9.30
2023-03-16T13:26:16.841Z,9.30
2023-03-16T13:28:51.324Z,9.30
2023-03-16T13:31:27.039Z,9.40
2023-03-16T13:33:59.981Z,9.30
2023-03-16T13:36:31.888Z,9.30
2023-03-16T13:39:06.674Z,9.20
2023-03-16T13:41:38.524Z,9.30
2023-03-16T13:44:15.634Z,9.30
2023-03-16T13:46:44.621Z,9.30
2023-03-16T13:49:15.396Z,9.30
2023-03-16T13:51:45.629Z,9.30
2023-03-16T13:54:23.574Z,9.30
2023-03-16T13:56:54.599Z,9.30
2023-03-16T13:59:23.436Z,9.40
2023-03-16T14:01:58.005Z,9.40
2023-03-16T14:04:29.279Z,9.50
2023-03-16T14:07:01.923Z,9.60
2023-03-16T14:09:36.228Z,9.60
2023-03-16T14:12:06.511Z,9.80
2023-03-16T14:14:41.212Z,9.90
2023-03-16T14:17:14.012Z,9.90
2023-03-16T14:19:47.794Z,10.10
2023-03-16T14:22:18.943Z,10.20
2023-03-16T14:24:54.524Z,10.30
2023-03-16T14:27:30.632Z,10.40
2023-03-16T14:30:03.024Z,10.40
2023-03-16T14:32:33.469Z,10.30
2023-03-16T14:35:16.875Z,10.30
2023-03-16T14:37:46.066Z,10.30
2023-03-16T14:40:28.500Z,10.20
2023-03-16T14:43:03.734Z,10.20
2023-03-16T14:45:35.269Z,10.10
2023-03-16T14:48:08.712Z,10.10
2023-03-16T14:50:37.482Z,10.10
2023-03-16T14:53:06.830Z,10.10
2023-03-16T14:55:36.355Z,10.10
2023-03-16T14:58:06.027Z,10.10
2023-03-16T15:00:42.792Z,10.00
2023-03-16T15:03:18.534Z,10.10
2023-03-16T15:05:50.309Z,10.10
2023-03-16T15:08:26.360Z,10.20
2023-03-16T15:10:55.786Z,10.30
2023-03-16T15:13:52.833Z,10.40
2023-03-16T15:16:23.290Z,10.40
2023-03-16T15:18:51.950Z,10.40
2023-03-16T15:21:24.210Z,10.40
2023-03-16T15:23:52.617Z,10.50
2023-03-16T15:26:27.150Z,10.50
2023-03-16T15:28:57.810Z,10.50
2023-03-16T15:31:26.759Z,10.50
2023-03-16T15:33:54.956Z,10.50
2023-03-16T15:36:26.120Z,10.60
2023-03-16T15:38:56.881Z,10.60
2023-03-16T15:41:30.134Z,10.60
2023-03-16T15:44:03.296Z,10.60
2023-03-16T15:46:31.663Z,10.60
2023-03-16T15:48:59.994Z,10.70
2023-03-16T15:51:31.881Z,10.70
2023-03-16T15:54:04.611Z,10.70
2023-03-16T15:56:50.853Z,10.60
2023-03-16T15:59:23.680Z,10.60
2023-03-16T16:01:54.375Z,10.60
2023-03-16T16:04:24.969Z,10.60
2023-03-16T16:06:55.419Z,10.70
2023-03-16T16:09:25.862Z,10.60
2023-03-16T16:11:56.276Z,10.60
2023-03-16T16:14:28.026Z,10.60
2023-03-16T16:16:56.436Z,10.60
2023-03-16T16:19:27.069Z,10.50
2023-03-16T16:21:55.172Z,10.50
2023-03-16T16:24:23.474Z,10.50
2023-03-16T16:26:55.299Z,10.50
2023-03-16T16:29:27.212Z,10.40
2023-03-16T16:31:55.830Z,10.40
2023-03-16T16:34:25.589Z,10.40
2023-03-16T16:36:54.602Z,10.40
2023-03-16T16:39:25.449Z,10.30
2023-03-16T16:41:56.623Z,10.30
2023-03-16T16:44:34.460Z,10.30
2023-03-16T16:47:13.595Z,10.30
2023-03-16T16:49:43.949Z,10.20
2023-03-16T16:52:16.336Z,10.20
2023-03-16T16:54:47.234Z,10.10
2023-03-16T16:57:20.800Z,10.10
2023-03-16T16:59:50.901Z,10.00
2023-03-16T17:02:29.240Z,10.00
2023-03-16T17:04:57.634Z,10.00
2023-03-16T17:07:28.172Z,9.90
2023-03-16T17:09:56.348Z,9.90
2023-03-16T17:12:25.873Z,9.80
2023-03-16T17:14:55.849Z,9.80
2023-03-16T17:17:26.916Z,9.80
2023-03-16T17:19:55.194Z,9.70
2023-03-16T17:22:25.507Z,9.60
2023-03-16T17:24:55.154Z,9.70
2023-03-16T17:27:27.959Z,9.60
2023-03-16T17:29:58.122Z,9.50
2023-03-16T17:32:27.135Z,9.50
2023-03-16T17:34:55.288Z,9.40
2023-03-16T17:37:26.357Z,9.40
2023-03-16T17:39:57.409Z,9.30
2023-03-16T17:42:29.023Z,9.30
2023-03-16T17:44:58.968Z,9.20
2023-03-16T17:47:28.984Z,9.20
2023-03-16T17:49:57.270Z,9.20
2023-03-16T17:52:30.000Z,9.10
2023-03-16T17:55:00.228Z,9.10
2023-03-16T17:57:31.074Z,9.00
2023-03-16T18:00:02.314Z,9.00
2023-03-16T18:02:44.806Z,9.00
2023-03-16T18:05:18.963Z,9.00
2023-03-16T18:07:47.857Z,8.90
2023-03-16T18:10:18.188Z,8.90
2023-03-16T18:12:58.944Z,8.80
2023-03-16T18:15:32.320Z,8.80
2023-03-16T18:18:01.466Z,8.80
2023-03-16T18:20:33.723Z,8.80
2023-03-16T18:23:11.547Z,8.80
2023-03-16T18:25:40.306Z,8.80
2023-03-16T18:28:12.572Z,8.80
2023-03-16T18:30:44.414Z,8.70
2023-03-16T18:33:24.968Z,8.70
2023-03-16T18:35:55.606Z,8.70
2023-03-16T18:38:31.305Z,8.60
2023-03-16T18:41:02.071Z,8.60
2023-03-16T18:43:30.824Z,8.60
2023-03-16T18:46:00.456Z,8.60
2023-03-16T18:48:32.505Z,8.60
2023-03-16T18:51:01.024Z,8.50
2023-03-16T18:53:29.637Z,8.60
2023-03-16T18:55:58.611Z,8.50
2023-03-16T18:58:27.239Z,8.50
2023-03-16T19:00:57.974Z,8.50
2023-03-16T19:03:32.235Z,8.50
2023-03-16T19:06:03.510Z,8.50
2023-03-16T19:08:34.356Z,8.50
2023-03-16T19:11:04.000Z,8.40
2023-03-16T19:13:34.898Z,8.50
2023-03-16T19:16:04.201Z,8.40
2023-03-16T19:18:41.994Z,8.40
2023-03-16T19:21:18.667Z,8.40
2023-03-16T19:23:52.978Z,8.40
2023-03-16T19:26:24.205Z,8.40
2023-03-16T19:28:52.741Z,8.40
2023-03-16T19:31:23.114Z,8.30
2023-03-16T19:33:53.289Z,8.30
2023-03-16T19:36:24.806Z,8.20
2023-03-16T19:38:53.390Z,8.20
2023-03-16T19:41:26.848Z,8.20
2023-03-16T19:43:59.512Z,8.20
2023-03-16T19:46:29.523Z,8.20
2023-03-16T19:48:59.036Z,8.10
2023-03-16T19:51:31.254Z,8.20
2023-03-16T19:54:01.680Z,8.10
2023-03-16T19:56:29.828Z,8.10
2023-03-16T19:58:58.962Z,8.10
2023-03-16T20:01:32.791Z,8.10
2023-03-16T20:04:04.265Z,8.10
2023-03-16T20:06:34.755Z,8.10
2023-03-16T20:09:05.298Z,8.10
2023-03-16T20:11:33.936Z,8.10
2023-03-16T20:14:03.537Z,8.10
2023-03-16T20:16:36.169Z,8.10
2023-03-16T20:19:15.384Z,8.10
2023-03-16T20:21:43.782Z,8.00
2023-03-16T20:24:16.443Z,8.00
2023-03-16T20:26:45.791Z,8.00
2023-03-16T20:29:22.120Z,8.00
2023-03-16T20:31:50.392Z,8.00
2023-03-16T20:34:23.438Z,8.00
2023-03-16T20:36:51.617Z,8.00
2023-03-16T20:39:22.023Z,7.90
2023-03-16T20:41:50.524Z,7.90
2023-03-16T20:44:21.842Z,7.90
2023-03-16T20:46:50.254Z,7.90
2023-03-16T20:49:34.041Z,7.80
2023-03-16T20:52:02.366Z,7.80
2023-03-16T20:54:30.503Z,7.90
2023-03-16T20:57:01.200Z,7.80
2023-03-16T20:59:32.980Z,7.80
2023-03-16T21:02:02.686Z,7.80
2023-03-16T21:04:32.754Z,7.80
2023-03-16T21:07:00.960Z,7.80
2023-03-16T21:09:31.878Z,7.80
2023-03-16T21:12:00.005Z,7.80
2023-03-16T21:14:28.149Z,7.70
2023-03-16T21:16:56.510Z,7.70
2023-03-16T21:19:24.921Z,7.70
2023-03-16T21:21:54.414Z,7.70
2023-03-16T21:24:22.666Z,7.70
2023-03-16T21:26:53.109Z,7.70
2023-03-16T21:29:22.258Z,7.70
2023-03-16T21:31:52.837Z,7.70
2023-03-16T21:34:26.131Z,7.70
2023-03-16T21:36:55.722Z,7.70
2023-03-16T21:39:26.248Z,7.80
2023-03-16T21:41:54.583Z,7.70
2023-03-16T21:44:22.782Z,7.70
2023-03-16T21:46:51.339Z,7.70
2023-03-16T21:49:19.729Z,7.70
2023-03-16T21:51:49.739Z,7.70
2023-03-16T21:54:20.312Z,7.60
2023-03-16T21:56:48.921Z,7.60
2023-03-16T21:59:17.327Z,7.60
2023-03-16T22:02:01.323Z,7.60
2023-03-16T22:04:32.709Z,7.60
2023-03-16T22:07:03.168Z,7.60
2023-03-16T22:09:33.131Z,7.50
2023-03-16T22:12:01.331Z,7.50
2023-03-16T22:14:29.448Z,7.50
2023-03-16T22:16:57.900Z,7.40
2023-03-16T22:19:28.524Z,7.40
2023-03-16T22:21:57.663Z,7.40
2023-03-16T22:24:27.914Z,7.40
2023-03-16T22:26:58.142Z,7.30
2023-03-16T22:29:28.932Z,7.30
2023-03-16T22:32:01.337Z,7.30
2023-03-16T22:34:32.909Z,7.20
2023-03-16T22:37:03.658Z,7.20
2023-03-16T22:39:33.731Z,7.20
2023-03-16T22:42:17.616Z,7.10
2023-03-16T22:44:45.811Z,7.10
2023-03-16T22:47:22.189Z,7.00
2023-03-16T22:49:50.334Z,7.00
2023-03-16T22:52:18.947Z,7.00
2023-03-16T22:54:47.654Z,7.00
2023-03-16T22:57:18.690Z,7.00
2023-03-16T22:59:51.265Z,6.90
2023-03-16T23:02:25.318Z,6.90
2023-03-16T23:04:53.629Z,6.90
2023-03-16T23:07:23.993Z,6.80
2023-03-16T23:09:52.388Z,6.80
2023-03-16T23:12:23.109Z,6.80
2023-03-16T23:14:51.255Z,6.70
2023-03-16T23:17:20.830Z,6.70
2023-03-16T23:19:49.403Z,6.70
2023-03-16T23:22:17.668Z,6.60
2023-03-16T23:24:45.871Z,6.60
2023-03-16T23:27:19.437Z,6.60
2023-03-16T23:29:49.713Z,6.50
2023-03-16T23:32:21.762Z,6.50
2023-03-16T23:34:51.891Z,6.50
2023-03-16T23:37:19.942Z,6.50
2023-03-16T23:39:49.199Z,6.40
2023-03-16T23:42:17.980Z,6.40
2023-03-16T23:44:46.206Z,6.40
2023-03-16T23:47:15.802Z,6.40
2023-03-16T23:49:46.559Z,6.30
2023-03-16T23:52:17.592Z,6.30
2023-03-16T23:54:49.573Z,6.30
2023-03-16T23:57:17.677Z,6.30
2023-03-16T23:59:47.889Z,6.30
